createdAt,value
2023-03-05T00:01:27.001Z,60.56
2023-03-05T00:03:56.423Z,60.56
2023-03-05T00:06:25.655Z,60.73
2023-03-05T00:08:56.772Z,60.67
2023-03-05T00:11:25.653Z,60.50
2023-03-05T00:13:53.636Z,60.85
2023-03-05T00:16:22.375Z,60.79
2023-03-05T00:18:50.520Z,60.56
2023-03-05T00:21:20.997Z,60.38
2023-03-05T00:23:50.686Z,60.25
2023-03-05T00:26:20.772Z,60.27
2023-03-05T00:28:49.997Z,60.63
2023-03-05T00:31:17.946Z,60.53
2023-03-05T00:33:45.686Z,60.69
2023-03-05T00:36:13.365Z,60.58
2023-03-05T00:38:41.008Z,60.63
2023-03-05T00:41:09.642Z,60.57
2023-03-05T00:43:38.686Z,60.43
2023-03-05T00:46:06.504Z,60.64
2023-03-05T00:48:34.304Z,60.48
2023-03-05T00:51:02.019Z,60.41
2023-03-05T00:53:29.842Z,60.55
2023-03-05T00:55:57.486Z,60.52
2023-03-05T00:58:25.220Z,60.49
2023-03-05T01:00:54.223Z,60.48
2023-03-05T01:03:21.886Z,60.55
2023-03-05T01:05:49.519Z,60.49
2023-03-05T01:08:17.660Z,60.25
2023-03-05T01:10:45.361Z,59.90
2023-03-05T01:13:13.366Z,60.03
2023-03-05T01:15:41.190Z,60.22
2023-03-05T01:18:10.217Z,60.29
2023-03-05T01:20:37.825Z,60.09
2023-03-05T01:23:05.533Z,60.18
2023-03-05T01:25:33.337Z,60.27
2023-03-05T01:28:01.371Z,60.38
2023-03-05T01:30:29.445Z,60.52
2023-03-05T01:32:57.519Z,60.75
2023-03-05T01:35:27.591Z,60.75
2023-03-05T01:37:55.726Z,60.74
2023-03-05T01:40:27.091Z,60.83
2023-03-05T01:42:59.567Z,60.94
2023-03-05T01:45:27.756Z,60.96
2023-03-05T01:47:55.398Z,60.88
2023-03-05T01:50:27.979Z,60.66
2023-03-05T01:53:00.144Z,60.60
2023-03-05T01:55:30.437Z,61.00
2023-03-05T01:58:05.111Z,61.04
2023-03-05T02:00:38.646Z,60.97
2023-03-05T02:03:08.537Z,60.76
2023-03-05T02:05:39.578Z,60.92
2023-03-05T02:08:09.203Z,60.76
2023-03-05T02:10:40.181Z,60.98
2023-03-05T02:13:10.549Z,60.84
2023-03-05T02:15:39.570Z,60.96
2023-03-05T02:18:08.200Z,60.82
2023-03-05T02:20:47.324Z,60.55
2023-03-05T02:23:17.635Z,60.60
2023-03-05T02:25:45.620Z,60.61
2023-03-05T02:28:19.578Z,60.62
2023-03-05T02:30:47.428Z,60.80
2023-03-05T02:33:15.827Z,60.90
2023-03-05T02:35:44.593Z,60.89
2023-03-05T02:38:12.720Z,60.90
2023-03-05T02:40:41.788Z,60.94
2023-03-05T02:43:10.268Z,61.29
2023-03-05T02:45:38.453Z,61.12
2023-03-05T02:48:06.590Z,61.51
2023-03-05T02:50:35.372Z,61.33
2023-03-05T02:53:03.417Z,61.03
2023-03-05T02:55:31.095Z,60.87
2023-03-05T02:58:00.187Z,60.77
2023-03-05T03:00:28.064Z,60.43
2023-03-05T03:02:55.937Z,60.33
2023-03-05T03:05:23.723Z,60.09
2023-03-05T03:07:52.337Z,59.73
2023-03-05T03:10:20.015Z,59.76
2023-03-05T03:12:47.700Z,59.99
2023-03-05T03:15:18.620Z,60.03
2023-03-05T03:17:46.652Z,60.27
2023-03-05T03:20:16.646Z,60.12
2023-03-05T03:22:46.039Z,60.39
2023-03-05T03:25:15.574Z,60.34
2023-03-05T03:27:43.345Z,60.56
2023-03-05T03:30:12.764Z,60.61
2023-03-05T03:32:41.776Z,60.90
2023-03-05T03:35:10.683Z,60.63
2023-03-05T03:37:38.668Z,60.46
2023-03-05T03:40:08.028Z,60.76
2023-03-05T03:42:35.796Z,60.61
2023-03-05T03:45:03.638Z,60.83
2023-03-05T03:47:31.476Z,60.63
2023-03-05T03:50:00.565Z,60.64
2023-03-05T03:52:28.174Z,60.53
2023-03-05T03:55:01.398Z,60.65
2023-03-05T03:57:30.747Z,60.21
2023-03-05T03:59:58.374Z,60.37
2023-03-05T04:02:26.414Z,60.54
2023-03-05T04:04:54.325Z,60.56
2023-03-05T04:07:23.487Z,60.36
2023-03-05T04:09:51.197Z,60.35
2023-03-05T04:12:18.997Z,60.34
2023-03-05T04:14:47.012Z,60.46
2023-03-05T04:17:15.907Z,60.46
2023-03-05T04:19:44.405Z,60.58
2023-03-05T04:22:13.233Z,60.32
2023-03-05T04:24:42.558Z,60.54
2023-03-05T04:27:10.402Z,60.57
2023-03-05T04:29:38.363Z,60.35
2023-03-05T04:32:06.732Z,60.40
2023-03-05T04:34:35.213Z,60.37
2023-03-05T04:37:02.955Z,60.24
2023-03-05T04:39:30.904Z,60.44
2023-03-05T04:41:59.920Z,60.35
2023-03-05T04:44:27.609Z,60.38
2023-03-05T04:46:55.315Z,60.56
2023-03-05T04:49:22.956Z,60.39
2023-03-05T04:51:50.626Z,60.06
2023-03-05T04:54:18.414Z,59.99
2023-03-05T04:56:46.201Z,59.87
2023-03-05T04:59:15.185Z,59.67
2023-03-05T05:01:43.091Z,59.70
2023-03-05T05:04:10.835Z,59.54
2023-03-05T05:06:38.532Z,59.41
2023-03-05T05:09:06.374Z,59.43
2023-03-05T05:11:34.066Z,59.54
2023-03-05T05:14:01.829Z,59.87
2023-03-05T05:16:31.211Z,60.40
2023-03-05T05:19:00.059Z,60.78
2023-03-05T05:21:27.758Z,61.00
2023-03-05T05:23:55.411Z,60.93
2023-03-05T05:26:23.141Z,61.15
2023-03-05T05:28:50.713Z,61.58
2023-03-05T05:31:19.675Z,61.60
2023-03-05T05:33:49.910Z,61.39
2023-03-05T05:36:20.076Z,61.53
2023-03-05T05:38:47.753Z,61.62
2023-03-05T05:41:18.908Z,61.68
2023-03-05T05:43:46.936Z,61.79
2023-03-05T05:46:16.441Z,61.74
2023-03-05T05:48:45.325Z,61.61
2023-03-05T05:51:17.254Z,61.76
2023-03-05T05:53:45.417Z,61.90
2023-03-05T05:56:14.708Z,62.05
2023-03-05T05:58:43.832Z,62.22
2023-03-05T06:01:16.643Z,62.23
2023-03-05T06:03:44.281Z,61.94
2023-03-05T06:06:15.177Z,61.72
2023-03-05T06:08:42.925Z,61.86
2023-03-05T06:11:10.745Z,61.79
2023-03-05T06:13:38.428Z,61.73
2023-03-05T06:16:08.409Z,61.52
2023-03-05T06:18:36.734Z,61.38
2023-03-05T06:21:06.649Z,61.15
2023-03-05T06:23:36.023Z,60.99
2023-03-05T06:26:06.800Z,60.91
2023-03-05T06:28:34.729Z,61.01
2023-03-05T06:31:04.173Z,60.59
2023-03-05T06:33:32.588Z,60.37
2023-03-05T06:36:00.356Z,60.39
2023-03-05T06:38:28.119Z,60.24
2023-03-05T06:41:01.258Z,59.87
2023-03-05T06:43:28.872Z,59.80
2023-03-05T06:46:03.323Z,59.64
2023-03-05T06:48:31.031Z,59.91
2023-03-05T06:50:58.705Z,59.85
2023-03-05T06:53:27.220Z,59.58
2023-03-05T06:55:54.999Z,59.52
2023-03-05T06:58:24.743Z,59.35
2023-03-05T07:00:52.476Z,59.41
2023-03-05T07:03:20.170Z,59.47
2023-03-05T07:05:50.754Z,59.42
2023-03-05T07:08:18.754Z,59.21
2023-03-05T07:10:46.590Z,58.99
2023-03-05T07:13:14.201Z,58.97
2023-03-05T07:15:44.903Z,58.57
2023-03-05T07:18:12.526Z,58.92
2023-03-05T07:20:40.178Z,58.89
2023-03-05T07:23:07.984Z,58.54
2023-03-05T07:25:37.141Z,58.25
2023-03-05T07:28:06.399Z,57.92
2023-03-05T07:30:34.677Z,57.88
2023-03-05T07:33:03.697Z,57.75
2023-03-05T07:35:31.393Z,57.63
2023-03-05T07:37:59.169Z,57.67
2023-03-05T07:40:26.817Z,57.43
2023-03-05T07:42:54.643Z,57.60
2023-03-05T07:45:22.338Z,57.21
2023-03-05T07:47:52.453Z,57.07
2023-03-05T07:50:21.543Z,56.85
2023-03-05T07:52:49.238Z,56.63
2023-03-05T07:55:16.929Z,56.64
2023-03-05T07:57:44.575Z,56.38
2023-03-05T08:00:13.688Z,55.98
2023-03-05T08:02:41.447Z,55.76
2023-03-05T08:05:09.471Z,55.74
2023-03-05T08:07:38.462Z,55.24
2023-03-05T08:10:07.305Z,55.04
2023-03-05T08:12:35.265Z,55.15
2023-03-05T08:15:02.912Z,54.99
2023-03-05T08:17:30.582Z,54.61
2023-03-05T08:20:00.131Z,54.73
2023-03-05T08:22:27.884Z,54.35
2023-03-05T08:24:56.863Z,53.75
2023-03-05T08:27:24.579Z,53.54
2023-03-05T08:29:52.311Z,53.50
2023-03-05T08:32:20.501Z,52.77
2023-03-05T08:34:48.230Z,52.23
2023-03-05T08:37:15.929Z,51.72
2023-03-05T08:39:43.613Z,51.62
2023-03-05T08:42:12.587Z,51.30
2023-03-05T08:44:40.299Z,51.18
2023-03-05T08:47:08.306Z,51.17
2023-03-05T08:49:36.003Z,50.78
2023-03-05T08:52:03.685Z,50.68
2023-03-05T08:54:31.379Z,50.16
2023-03-05T08:56:59.092Z,50.62
2023-03-05T08:59:28.112Z,50.69
2023-03-05T09:01:55.936Z,50.96
2023-03-05T09:04:23.739Z,50.90
2023-03-05T09:06:51.742Z,50.95
2023-03-05T09:09:21.259Z,50.69
2023-03-05T09:11:48.844Z,50.22
2023-03-05T09:14:16.500Z,50.16
2023-03-05T09:16:45.895Z,50.15
2023-03-05T09:19:15.126Z,50.07
2023-03-05T09:21:43.134Z,50.31
2023-03-05T09:24:11.775Z,50.12
2023-03-05T09:26:40.971Z,49.96
2023-03-05T09:29:09.102Z,50.29
2023-03-05T09:31:37.220Z,50.22
2023-03-05T09:34:08.170Z,49.58
2023-03-05T09:36:36.010Z,48.80
2023-03-05T09:39:06.582Z,48.96
2023-03-05T09:41:52.182Z,48.82
2023-03-05T09:44:31.732Z,48.85
2023-03-05T09:47:14.816Z,49.05
2023-03-05T09:49:53.210Z,48.68
2023-03-05T09:52:25.011Z,48.72
2023-03-05T09:54:56.565Z,48.13
2023-03-05T09:57:30.090Z,47.99
2023-03-05T10:00:00.972Z,47.79
2023-03-05T10:02:32.754Z,47.47
2023-03-05T10:05:13.950Z,47.03
2023-03-05T10:07:44.561Z,46.65
2023-03-05T10:10:16.663Z,45.56
2023-03-05T10:12:46.515Z,46.30
2023-03-05T10:15:17.355Z,47.16
2023-03-05T10:18:02.391Z,46.79
2023-03-05T10:20:54.994Z,45.65
2023-03-05T10:23:30.045Z,45.35
2023-03-05T10:26:09.804Z,44.84
2023-03-05T10:28:49.843Z,44.46
2023-03-05T10:31:41.987Z,44.03
2023-03-05T10:34:34.961Z,44.08
2023-03-05T10:37:28.432Z,44.63
2023-03-05T10:40:09.847Z,44.76
2023-03-05T10:42:44.726Z,44.38
2023-03-05T10:45:16.816Z,43.34
2023-03-05T10:47:49.492Z,44.35
2023-03-05T10:50:20.935Z,44.39
2023-03-05T10:52:57.894Z,43.07
2023-03-05T10:55:25.637Z,43.30
2023-03-05T10:57:53.410Z,43.96
2023-03-05T11:00:23.478Z,43.97
2023-03-05T11:02:59.218Z,44.58
2023-03-05T11:05:48.983Z,43.79
2023-03-05T11:08:30.948Z,43.24
2023-03-05T11:11:14.668Z,43.51
2023-03-05T11:13:53.662Z,43.12
2023-03-05T11:16:23.833Z,42.64
2023-03-05T11:18:51.960Z,43.02
2023-03-05T11:21:23.944Z,43.03
2023-03-05T11:24:14.770Z,43.22
2023-03-05T11:26:51.090Z,43.05
2023-03-05T11:29:22.506Z,43.42
2023-03-05T11:31:51.025Z,43.62
2023-03-05T11:34:39.824Z,43.29
2023-03-05T11:37:08.049Z,43.61
2023-03-05T11:39:40.187Z,43.86
2023-03-05T11:42:12.788Z,43.37
2023-03-05T11:44:47.900Z,43.20
2023-03-05T11:47:24.122Z,43.70
2023-03-05T11:49:55.975Z,43.99
2023-03-05T11:52:27.898Z,43.60
2023-03-05T11:55:03.493Z,43.66
2023-03-05T11:57:41.770Z,43.62
2023-03-05T12:00:16.278Z,43.94
2023-03-05T12:02:44.258Z,43.34
2023-03-05T12:05:15.973Z,43.44
2023-03-05T12:07:48.374Z,43.41
2023-03-05T12:10:19.686Z,43.47
2023-03-05T12:12:54.336Z,43.15
2023-03-05T12:15:34.935Z,43.64
2023-03-05T12:18:11.197Z,43.66
2023-03-05T12:20:47.457Z,43.98
2023-03-05T12:23:19.415Z,43.91
2023-03-05T12:25:51.148Z,43.79
2023-03-05T12:28:56.183Z,43.57
2023-03-05T12:31:35.433Z,43.76
2023-03-05T12:34:36.808Z,44.02
2023-03-05T12:37:05.211Z,44.28
2023-03-05T12:39:52.627Z,45.44
2023-03-05T12:42:48.235Z,46.10
2023-03-05T12:45:38.253Z,46.87
2023-03-05T12:48:50.630Z,47.49
2023-03-05T12:51:40.609Z,48.02
2023-03-05T12:54:30.466Z,47.96
2023-03-05T12:57:00.292Z,48.07
2023-03-05T12:59:41.644Z,48.19
2023-03-05T13:02:29.875Z,48.39
2023-03-05T13:05:03.667Z,47.93
2023-03-05T13:07:31.426Z,48.16
2023-03-05T13:10:00.657Z,48.54
2023-03-05T13:12:30.993Z,48.84
2023-03-05T13:15:03.684Z,49.16
2023-03-05T13:17:39.218Z,48.37
2023-03-05T13:20:27.034Z,48.02
2023-03-05T13:23:15.046Z,48.42
2023-03-05T13:25:44.369Z,48.41
2023-03-05T13:28:13.754Z,48.33
2023-03-05T13:30:46.804Z,48.18
2023-03-05T13:33:18.941Z,48.24
2023-03-05T13:35:47.694Z,48.27
2023-03-05T13:38:25.517Z,48.45
2023-03-05T13:41:04.189Z,48.28
2023-03-05T13:43:32.419Z,48.47
2023-03-05T13:46:07.715Z,48.53
2023-03-05T13:48:35.545Z,49.23
2023-03-05T13:51:06.818Z,49.15
2023-03-05T13:53:35.450Z,49.28
2023-03-05T13:56:06.509Z,48.99
2023-03-05T13:58:48.810Z,49.02
2023-03-05T14:01:25.285Z,48.97
2023-03-05T14:03:56.113Z,49.15
2023-03-05T14:06:27.693Z,49.35
2023-03-05T14:09:03.658Z,49.45
2023-03-05T14:11:31.499Z,49.13
2023-03-05T14:14:06.481Z,49.24
2023-03-05T14:16:35.743Z,49.90
2023-03-05T14:19:07.242Z,50.66
2023-03-05T14:21:47.059Z,49.75
2023-03-05T14:24:22.172Z,49.26
2023-03-05T14:26:52.694Z,48.96
2023-03-05T14:29:23.667Z,48.79
2023-03-05T14:31:55.598Z,48.92
2023-03-05T14:34:28.319Z,49.01
2023-03-05T14:36:58.986Z,48.68
2023-03-05T14:39:41.671Z,48.40
2023-03-05T14:42:27.036Z,48.33
2023-03-05T14:44:55.703Z,47.98
2023-03-05T14:47:25.330Z,47.46
2023-03-05T14:49:53.036Z,47.68
2023-03-05T14:52:23.056Z,47.99
2023-03-05T14:54:50.946Z,47.73
2023-03-05T14:57:21.493Z,47.29
2023-03-05T14:59:49.209Z,47.16
2023-03-05T15:02:19.016Z,46.86
2023-03-05T15:04:48.339Z,46.47
2023-03-05T15:07:19.765Z,46.93
2023-03-05T15:09:47.424Z,47.00
2023-03-05T15:12:16.776Z,47.17
2023-03-05T15:14:44.658Z,47.15
2023-03-05T15:17:19.187Z,47.38
2023-03-05T15:19:48.594Z,47.21
2023-03-05T15:22:16.970Z,47.68
2023-03-05T15:24:45.641Z,48.19
2023-03-05T15:27:14.568Z,48.49
2023-03-05T15:29:42.618Z,48.44
2023-03-05T15:32:10.422Z,48.48
2023-03-05T15:34:38.231Z,48.83
2023-03-05T15:37:07.470Z,48.70
2023-03-05T15:39:35.151Z,48.71
2023-03-05T15:42:04.453Z,48.54
2023-03-05T15:44:33.017Z,48.46
2023-03-05T15:47:00.865Z,49.20
2023-03-05T15:49:28.857Z,49.03
2023-03-05T15:51:57.009Z,48.87
2023-03-05T15:54:26.291Z,49.20
2023-03-05T15:56:54.054Z,49.90
2023-03-05T15:59:22.018Z,50.12
2023-03-05T16:01:52.081Z,50.10
2023-03-05T16:04:20.154Z,50.05
2023-03-05T16:06:50.467Z,50.41
2023-03-05T16:09:20.583Z,50.52
2023-03-05T16:11:51.519Z,50.26
2023-03-05T16:14:28.165Z,50.58
2023-03-05T16:16:58.993Z,50.92
2023-03-05T16:19:27.901Z,50.72
2023-03-05T16:21:58.345Z,50.78
2023-03-05T16:24:26.009Z,50.71
2023-03-05T16:26:55.334Z,50.52
2023-03-05T16:29:23.124Z,50.09
2023-03-05T16:31:50.827Z,50.15
2023-03-05T16:34:18.835Z,50.22
2023-03-05T16:36:50.233Z,50.40
2023-03-05T16:39:18.028Z,50.70
2023-03-05T16:41:45.820Z,50.71
2023-03-05T16:44:14.921Z,49.93
2023-03-05T16:46:43.936Z,49.40
2023-03-05T16:49:12.326Z,48.98
2023-03-05T16:51:40.117Z,48.76
2023-03-05T16:54:10.073Z,48.55
2023-03-05T16:56:37.989Z,48.13
2023-03-05T16:59:05.859Z,48.15
2023-03-05T17:01:37.061Z,48.90
2023-03-05T17:04:04.907Z,48.51
2023-03-05T17:06:34.759Z,48.29
2023-03-05T17:09:02.815Z,48.16
2023-03-05T17:11:30.538Z,48.48
2023-03-05T17:13:58.411Z,48.40
2023-03-05T17:16:26.179Z,48.65
2023-03-05T17:18:55.222Z,48.51
2023-03-05T17:21:22.892Z,48.54
2023-03-05T17:23:50.667Z,48.25
2023-03-05T17:26:20.798Z,48.53
2023-03-05T17:28:48.560Z,48.70
2023-03-05T17:31:16.619Z,48.45
2023-03-05T17:33:44.443Z,48.43
2023-03-05T17:36:18.409Z,48.35
2023-03-05T17:38:47.589Z,48.49
2023-03-05T17:41:16.309Z,48.65
2023-03-05T17:43:44.097Z,48.67
2023-03-05T17:46:12.393Z,48.77
2023-03-05T17:48:40.165Z,48.67
2023-03-05T17:51:08.747Z,48.56
2023-03-05T17:53:39.408Z,48.62
2023-03-05T17:56:09.272Z,48.72
2023-03-05T17:58:37.354Z,49.23
2023-03-05T18:01:06.525Z,49.25
2023-03-05T18:03:34.523Z,49.21
2023-03-05T18:06:02.235Z,49.38
2023-03-05T18:08:29.834Z,49.36
2023-03-05T18:10:58.930Z,49.60
2023-03-05T18:13:26.579Z,49.48
2023-03-05T18:15:54.299Z,49.59
2023-03-05T18:18:21.960Z,49.65
2023-03-05T18:20:50.195Z,49.45
2023-03-05T18:23:17.853Z,49.90
2023-03-05T18:25:45.716Z,50.54
2023-03-05T18:28:16.353Z,50.79
2023-03-05T18:30:46.518Z,51.04
2023-03-05T18:33:19.794Z,50.93
2023-03-05T18:35:49.610Z,50.86
2023-03-05T18:38:17.336Z,50.91
2023-03-05T18:40:46.514Z,50.46
2023-03-05T18:43:17.293Z,50.36
2023-03-05T18:45:46.834Z,50.41
2023-03-05T18:48:14.588Z,50.43
2023-03-05T18:50:42.480Z,50.35
2023-03-05T18:53:13.000Z,50.11
2023-03-05T18:55:42.101Z,50.07
2023-03-05T18:58:09.873Z,50.24
2023-03-05T19:00:40.883Z,50.03
2023-03-05T19:03:08.958Z,49.94
2023-03-05T19:05:36.649Z,49.97
2023-03-05T19:08:04.373Z,49.92
2023-03-05T19:10:32.827Z,49.95
2023-03-05T19:13:15.692Z,50.20
2023-03-05T19:15:44.910Z,50.29
2023-03-05T19:18:13.111Z,50.45
2023-03-05T19:20:41.010Z,50.76
2023-03-05T19:23:08.677Z,51.04
2023-03-05T19:25:36.691Z,51.25
2023-03-05T19:28:04.368Z,51.42
2023-03-05T19:30:32.195Z,51.44
2023-03-05T19:33:01.361Z,50.99
2023-03-05T19:35:29.029Z,50.65
2023-03-05T19:37:56.695Z,50.56
2023-03-05T19:40:24.431Z,50.67
2023-03-05T19:42:52.105Z,50.82
2023-03-05T19:45:20.074Z,50.94
2023-03-05T19:47:47.712Z,50.92
2023-03-05T19:50:17.264Z,50.91
2023-03-05T19:52:45.018Z,51.06
2023-03-05T19:55:12.823Z,50.91
2023-03-05T19:57:40.503Z,50.93
2023-03-05T20:00:09.738Z,50.65
2023-03-05T20:02:37.446Z,50.67
2023-03-05T20:05:10.370Z,50.50
2023-03-05T20:07:39.332Z,50.31
2023-03-05T20:10:07.788Z,50.31
2023-03-05T20:12:36.518Z,50.47
2023-03-05T20:15:04.509Z,50.26
2023-03-05T20:17:32.173Z,50.22
2023-03-05T20:20:00.194Z,50.27
2023-03-05T20:22:27.854Z,50.06
2023-03-05T20:24:56.929Z,50.42
2023-03-05T20:27:24.653Z,50.79
2023-03-05T20:29:52.325Z,50.91
2023-03-05T20:32:19.945Z,51.02
2023-03-05T20:34:51.087Z,51.18
2023-03-05T20:37:18.856Z,50.86
2023-03-05T20:39:46.512Z,50.61
2023-03-05T20:42:15.580Z,50.39
2023-03-05T20:44:43.202Z,50.24
2023-03-05T20:47:26.112Z,50.19
2023-03-05T20:49:55.830Z,49.96
2023-03-05T20:52:23.713Z,50.04
2023-03-05T20:54:51.471Z,49.98
2023-03-05T20:57:20.640Z,49.81
2023-03-05T20:59:48.266Z,49.93
2023-03-05T21:02:18.253Z,49.92
2023-03-05T21:04:46.053Z,50.08
2023-03-05T21:07:13.799Z,49.70
2023-03-05T21:09:41.609Z,49.99
2023-03-05T21:12:09.590Z,50.06
2023-03-05T21:14:40.500Z,50.21
2023-03-05T21:17:08.902Z,50.36
2023-03-05T21:19:39.895Z,50.49
2023-03-05T21:22:07.681Z,50.82
2023-03-05T21:24:52.094Z,51.08
2023-03-05T21:27:19.688Z,50.95
2023-03-05T21:29:48.783Z,51.30
2023-03-05T21:32:16.645Z,51.39
2023-03-05T21:34:44.438Z,51.55
2023-03-05T21:37:12.181Z,51.82
2023-03-05T21:39:39.882Z,51.86
2023-03-05T21:42:07.604Z,52.14
2023-03-05T21:44:35.232Z,52.09
2023-03-05T21:47:04.554Z,52.01
2023-03-05T21:49:32.221Z,52.05
2023-03-05T21:52:09.089Z,51.85
2023-03-05T21:54:36.970Z,51.77
2023-03-05T21:57:05.590Z,52.23
2023-03-05T21:59:33.593Z,52.38
2023-03-05T22:02:01.606Z,52.23
2023-03-05T22:04:30.600Z,52.60
2023-03-05T22:06:58.396Z,52.98
2023-03-05T22:09:26.038Z,53.29
2023-03-05T22:11:53.680Z,52.80
2023-03-05T22:14:21.440Z,52.61
2023-03-05T22:16:53.112Z,52.25
2023-03-05T22:19:20.945Z,52.16
2023-03-05T22:21:50.070Z,52.37
2023-03-05T22:24:17.694Z,52.48
2023-03-05T22:26:45.343Z,52.54
2023-03-05T22:29:13.223Z,52.63
2023-03-05T22:31:41.503Z,52.70
2023-03-05T22:34:09.272Z,52.93
2023-03-05T22:36:37.048Z,52.97
2023-03-05T22:39:06.147Z,53.03
2023-03-05T22:41:34.186Z,52.49
2023-03-05T22:44:01.830Z,52.44
2023-03-05T22:46:29.533Z,52.66
2023-03-05T22:48:57.298Z,53.00
2023-03-05T22:51:25.251Z,52.90
2023-03-05T22:53:53.011Z,52.92
2023-03-05T22:56:22.449Z,52.81
2023-03-05T22:58:50.405Z,52.90
2023-03-05T23:01:21.775Z,52.83
2023-03-05T23:03:55.486Z,53.02
2023-03-05T23:06:23.267Z,52.95
2023-03-05T23:08:51.287Z,52.99
2023-03-05T23:11:18.982Z,52.86
2023-03-05T23:13:48.044Z,52.87
2023-03-05T23:16:15.756Z,52.35
2023-03-05T23:18:43.678Z,52.27
2023-03-05T23:21:11.322Z,52.16
2023-03-05T23:23:39.056Z,52.04
2023-03-05T23:26:07.086Z,52.26
2023-03-05T23:28:34.829Z,52.70
2023-03-05T23:31:04.296Z,52.66
2023-03-05T23:33:32.222Z,52.57
2023-03-05T23:36:01.198Z,52.27
2023-03-05T23:38:30.893Z,52.23
2023-03-05T23:41:01.135Z,51.92
2023-03-05T23:43:29.726Z,52.19
2023-03-05T23:45:57.837Z,51.95
2023-03-05T23:48:28.314Z,51.90
2023-03-05T23:50:56.299Z,51.96
2023-03-05T23:53:26.519Z,51.83
2023-03-05T23:55:55.156Z,51.49
2023-03-05T23:58:22.906Z,51.60
